Blue Diamond, NV (89004)

12:24 PM PST on December 28, 2014 (GMT -0800)
RAWS RED ROCK NV US | Change Station
CLOSE
Current Station
Personal Weather Station
Location: Blue Diamond, NV
Elevation: 3755 ft
Nearby Weather Stations

Elev 3755 ft 36.13 °N, 115.43 °W | Updated 50 minutes ago

Clear
Clear
41 °F
Feels Like 38 °F
N
5
Wind Variable Wind from East
Gusts 9.0 mph

Today
High -- | Low -- °F
--% Chance of Precip.
Yesterday
High -- | Low -- °F
Precip. -- in
6:51 AM 4:35 PM
Waxing Crescent, 51% visible
Pressure 30.21 in
Visibility 10.0 miles
Clouds Few 15000 ft
Scattered Clouds 20000 ft
Windchill 38 °F
Dew Point 10 °F
Humidity 27%
Rainfall 0.00 in
Snow Depth Not available.
UV 3 out of 12
Pollen .90 out of 12
Air Quality Not available.
Flu Activity Not available.
METAR KLAS 281956Z 16004KT 10SM FEW150 SCT200 07/M12 A3019 RMK AO2 SLP228 T00721122

More Conditions Fewer Conditions

Pressure 30.21 in
Visibility 10.0 miles
Clouds Few 15000 ft
Scattered Clouds 20000 ft
Windchill 38 °F
Dew Point 10 °F
Humidity 27%
Rainfall 0.00 in
Snow Depth Not available.
UV 3 out of 12
Pollen .90 out of 12
Air Quality Not available.
Flu Activity Not available.
METAR KLAS 281956Z 16004KT 10SM FEW150 SCT200 07/M12 A3019 RMK AO2 SLP228 T00721122

More Conditions Fewer Conditions

10-Day Weather Forecast

Almanac

Astronomy

Dec. 28, 2014 Rise Set
Actual Time
Civil Twilight
Nautical Twilight
Astronomical Twilight
Moon
Length of Visible Light
Length of Day
Tomorrow will be .
, % of the Moon is Illuminated

Today's Extremes

State Highs State Lows

Community

WunderPhotos

Upload Photos

1,781,411 photos uploaded!

WunderBlogs® & News

Nearby

Air Quality

  Air Quality AQ Index Pollutant
Not available.

Snow Depth

Station Depth Elevation

Earthquake Activity

City Distance Mag. Time & Date
Minimum magnitude displayed is 2.5.

Coastal Water Temperatures

Place Temperature

Nearby Weather Stations